sensor_id;sensor_type;location;lat;lon;timestamp;temperature;humidity
44431;DHT22;30135;47.866;-4.222;2022-08-19T00:00:54;20.90;92.50
44431;DHT22;30135;47.866;-4.222;2022-08-19T00:03:21;20.80;92.50
44431;DHT22;30135;47.866;-4.222;2022-08-19T00:05:49;20.80;92.60
44431;DHT22;30135;47.866;-4.222;2022-08-19T00:08:23;20.90;92.60
44431;DHT22;30135;47.866;-4.222;2022-08-19T00:10:51;20.90;92.60
44431;DHT22;30135;47.866;-4.222;2022-08-19T00:13:17;20.90;92.60
44431;DHT22;30135;47.866;-4.222;2022-08-19T00:15:44;20.90;92.70
44431;DHT22;30135;47.866;-4.222;2022-08-19T00:18:11;20.90;92.70
44431;DHT22;30135;47.866;-4.222;2022-08-19T00:20:37;20.80;92.70
44431;DHT22;30135;47.866;-4.222;2022-08-19T00:23:07;20.90;92.70
44431;DHT22;30135;47.866;-4.222;2022-08-19T00:25:35;20.80;93.00
44431;DHT22;30135;47.866;-4.222;2022-08-19T00:28:03;20.90;92.70
44431;DHT22;30135;47.866;-4.222;2022-08-19T00:30:33;20.90;92.70
44431;DHT22;30135;47.866;-4.222;2022-08-19T00:32:59;20.90;92.70
44431;DHT22;30135;47.866;-4.222;2022-08-19T00:35:30;20.80;92.70
44431;DHT22;30135;47.866;-4.222;2022-08-19T00:38:01;20.90;92.70
44431;DHT22;30135;47.866;-4.222;2022-08-19T00:40:28;20.80;92.70
44431;DHT22;30135;47.866;-4.222;2022-08-19T00:42:56;20.90;92.70
44431;DHT22;30135;47.866;-4.222;2022-08-19T00:45:28;20.90;92.70
44431;DHT22;30135;47.866;-4.222;2022-08-19T00:47:58;20.80;92.70
44431;DHT22;30135;47.866;-4.222;2022-08-19T00:50:24;20.80;92.70
44431;DHT22;30135;47.866;-4.222;2022-08-19T00:52:51;20.80;92.70
44431;DHT22;30135;47.866;-4.222;2022-08-19T00:55:23;20.80;92.70
44431;DHT22;30135;47.866;-4.222;2022-08-19T00:58:15;20.80;92.70
44431;DHT22;30135;47.866;-4.222;2022-08-19T01:00:47;20.80;92.70
44431;DHT22;30135;47.866;-4.222;2022-08-19T01:03:19;20.80;92.70
44431;DHT22;30135;47.866;-4.222;2022-08-19T01:05:49;20.80;92.80
44431;DHT22;30135;47.866;-4.222;2022-08-19T01:08:19;20.80;92.80
44431;DHT22;30135;47.866;-4.222;2022-08-19T01:10:51;20.80;92.70
44431;DHT22;30135;47.866;-4.222;2022-08-19T01:13:24;20.80;92.80
44431;DHT22;30135;47.866;-4.222;2022-08-19T01:15:56;20.80;92.80
44431;DHT22;30135;47.866;-4.222;2022-08-19T01:18:27;20.80;92.80
44431;DHT22;30135;47.866;-4.222;2022-08-19T01:20:56;20.80;92.80
44431;DHT22;30135;47.866;-4.222;2022-08-19T01:23:24;20.80;92.80
44431;DHT22;30135;47.866;-4.222;2022-08-19T01:26:21;20.80;92.60
44431;DHT22;30135;47.866;-4.222;2022-08-19T01:28:50;20.80;92.80
44431;DHT22;30135;47.866;-4.222;2022-08-19T01:31:38;20.70;92.70
44431;DHT22;30135;47.866;-4.222;2022-08-19T01:34:05;20.80;92.70
44431;DHT22;30135;47.866;-4.222;2022-08-19T01:36:44;20.70;92.80
44431;DHT22;30135;47.866;-4.222;2022-08-19T01:39:21;20.80;92.80
44431;DHT22;30135;47.866;-4.222;2022-08-19T01:41:49;20.70;92.80
44431;DHT22;30135;47.866;-4.222;2022-08-19T01:44:21;20.70;92.80
44431;DHT22;30135;47.866;-4.222;2022-08-19T01:46:50;20.80;92.80
44431;DHT22;30135;47.866;-4.222;2022-08-19T01:49:21;20.80;92.80
44431;DHT22;30135;47.866;-4.222;2022-08-19T01:51:51;20.70;92.80
44431;DHT22;30135;47.866;-4.222;2022-08-19T01:54:24;20.80;92.80
44431;DHT22;30135;47.866;-4.222;2022-08-19T01:56:52;20.70;92.80
44431;DHT22;30135;47.866;-4.222;2022-08-19T01:59:22;20.70;92.80
44431;DHT22;30135;47.866;-4.222;2022-08-19T02:01:53;20.70;92.80
44431;DHT22;30135;47.866;-4.222;2022-08-19T02:04:22;20.80;92.90
44431;DHT22;30135;47.866;-4.222;2022-08-19T02:06:51;20.80;92.90
44431;DHT22;30135;47.866;-4.222;2022-08-19T02:09:20;20.70;92.90
44431;DHT22;30135;47.866;-4.222;2022-08-19T02:11:47;20.80;92.90
44431;DHT22;30135;47.866;-4.222;2022-08-19T02:14:15;20.70;92.90
44431;DHT22;30135;47.866;-4.222;2022-08-19T02:16:41;20.70;92.90
44431;DHT22;30135;47.866;-4.222;2022-08-19T02:19:09;20.70;92.90
44431;DHT22;30135;47.866;-4.222;2022-08-19T02:21:36;20.70;92.90
44431;DHT22;30135;47.866;-4.222;2022-08-19T02:24:03;20.70;92.90
44431;DHT22;30135;47.866;-4.222;2022-08-19T02:26:30;20.70;92.90
44431;DHT22;30135;47.866;-4.222;2022-08-19T02:28:57;20.70;92.90
44431;DHT22;30135;47.866;-4.222;2022-08-19T02:31:27;20.80;93.00
44431;DHT22;30135;47.866;-4.222;2022-08-19T02:33:55;20.70;93.00
44431;DHT22;30135;47.866;-4.222;2022-08-19T02:36:22;20.70;93.00
44431;DHT22;30135;47.866;-4.222;2022-08-19T02:38:56;20.70;93.00
44431;DHT22;30135;47.866;-4.222;2022-08-19T02:41:26;20.70;93.00
44431;DHT22;30135;47.866;-4.222;2022-08-19T02:43:57;20.80;93.00
44431;DHT22;30135;47.866;-4.222;2022-08-19T02:46:29;20.70;93.10
44431;DHT22;30135;47.866;-4.222;2022-08-19T02:49:00;20.80;93.10
44431;DHT22;30135;47.866;-4.222;2022-08-19T02:51:34;20.70;93.10
44431;DHT22;30135;47.866;-4.222;2022-08-19T02:54:06;20.70;93.10
44431;DHT22;30135;47.866;-4.222;2022-08-19T02:56:37;20.70;93.10
44431;DHT22;30135;47.866;-4.222;2022-08-19T02:59:07;20.70;93.10
44431;DHT22;30135;47.866;-4.222;2022-08-19T03:01:37;20.70;93.10
44431;DHT22;30135;47.866;-4.222;2022-08-19T03:04:14;20.80;93.10
44431;DHT22;30135;47.866;-4.222;2022-08-19T03:06:48;20.70;93.10
44431;DHT22;30135;47.866;-4.222;2022-08-19T03:09:20;20.80;93.10
44431;DHT22;30135;47.866;-4.222;2022-08-19T03:11:46;20.70;93.10
44431;DHT22;30135;47.866;-4.222;2022-08-19T03:14:12;20.70;93.10
44431;DHT22;30135;47.866;-4.222;2022-08-19T03:16:47;20.70;93.10
44431;DHT22;30135;47.866;-4.222;2022-08-19T03:19:19;20.70;93.10
44431;DHT22;30135;47.866;-4.222;2022-08-19T03:21:50;20.70;93.10
44431;DHT22;30135;47.866;-4.222;2022-08-19T03:24:17;20.70;93.10
44431;DHT22;30135;47.866;-4.222;2022-08-19T03:26:48;20.70;93.10
44431;DHT22;30135;47.866;-4.222;2022-08-19T03:29:19;20.70;93.10
44431;DHT22;30135;47.866;-4.222;2022-08-19T03:31:47;20.80;93.20
44431;DHT22;30135;47.866;-4.222;2022-08-19T03:34:28;20.70;92.90
44431;DHT22;30135;47.866;-4.222;2022-08-19T03:36:59;20.70;93.10
44431;DHT22;30135;47.866;-4.222;2022-08-19T03:39:30;20.70;93.20
44431;DHT22;30135;47.866;-4.222;2022-08-19T03:41:57;20.70;93.20
44431;DHT22;30135;47.866;-4.222;2022-08-19T03:44:29;20.70;93.20
44431;DHT22;30135;47.866;-4.222;2022-08-19T03:46:59;20.70;93.20
44431;DHT22;30135;47.866;-4.222;2022-08-19T03:49:29;20.70;93.20
44431;DHT22;30135;47.866;-4.222;2022-08-19T03:51:57;20.70;93.20
44431;DHT22;30135;47.866;-4.222;2022-08-19T03:54:26;20.70;93.30
44431;DHT22;30135;47.866;-4.222;2022-08-19T03:56:55;20.70;93.20
44431;DHT22;30135;47.866;-4.222;2022-08-19T03:59:33;20.70;93.30
44431;DHT22;30135;47.866;-4.222;2022-08-19T04:02:04;20.70;93.30
44431;DHT22;30135;47.866;-4.222;2022-08-19T04:04:36;20.70;93.30
44431;DHT22;30135;47.866;-4.222;2022-08-19T04:07:04;20.70;93.40
44431;DHT22;30135;47.866;-4.222;2022-08-19T04:09:34;20.70;93.40
44431;DHT22;30135;47.866;-4.222;2022-08-19T04:12:03;20.80;93.40
44431;DHT22;30135;47.866;-4.222;2022-08-19T04:14:31;20.70;93.40
44431;DHT22;30135;47.866;-4.222;2022-08-19T04:16:58;20.80;93.40
44431;DHT22;30135;47.866;-4.222;2022-08-19T04:19:25;20.80;93.50
44431;DHT22;30135;47.866;-4.222;2022-08-19T04:21:54;20.80;93.40
44431;DHT22;30135;47.866;-4.222;2022-08-19T04:24:22;20.80;93.40
44431;DHT22;30135;47.866;-4.222;2022-08-19T04:26:51;20.80;93.40
44431;DHT22;30135;47.866;-4.222;2022-08-19T04:29:20;20.80;93.40
44431;DHT22;30135;47.866;-4.222;2022-08-19T04:31:52;20.80;93.30
44431;DHT22;30135;47.866;-4.222;2022-08-19T04:34:23;20.80;93.50
44431;DHT22;30135;47.866;-4.222;2022-08-19T04:36:52;20.80;93.50
44431;DHT22;30135;47.866;-4.222;2022-08-19T04:39:25;20.80;93.40
44431;DHT22;30135;47.866;-4.222;2022-08-19T04:42:14;20.80;93.50
44431;DHT22;30135;47.866;-4.222;2022-08-19T04:45:00;20.80;93.40
44431;DHT22;30135;47.866;-4.222;2022-08-19T04:47:28;20.80;93.40
44431;DHT22;30135;47.866;-4.222;2022-08-19T04:49:57;20.80;93.40
44431;DHT22;30135;47.866;-4.222;2022-08-19T04:52:24;20.80;93.40
44431;DHT22;30135;47.866;-4.222;2022-08-19T04:54:50;20.80;93.40
44431;DHT22;30135;47.866;-4.222;2022-08-19T04:57:17;20.80;93.40
44431;DHT22;30135;47.866;-4.222;2022-08-19T04:59:45;20.80;93.40
44431;DHT22;30135;47.866;-4.222;2022-08-19T05:02:11;20.80;93.30
44431;DHT22;30135;47.866;-4.222;2022-08-19T05:04:38;20.80;93.30
44431;DHT22;30135;47.866;-4.222;2022-08-19T05:07:06;20.80;93.30
44431;DHT22;30135;47.866;-4.222;2022-08-19T05:09:34;20.80;93.30
44431;DHT22;30135;47.866;-4.222;2022-08-19T05:12:00;20.80;93.20
44431;DHT22;30135;47.866;-4.222;2022-08-19T05:14:27;20.80;93.20
44431;DHT22;30135;47.866;-4.222;2022-08-19T05:16:54;20.80;93.20
44431;DHT22;30135;47.866;-4.222;2022-08-19T05:19:21;20.80;93.20
44431;DHT22;30135;47.866;-4.222;2022-08-19T05:22:06;20.80;93.20
44431;DHT22;30135;47.866;-4.222;2022-08-19T05:24:52;20.80;93.20
44431;DHT22;30135;47.866;-4.222;2022-08-19T05:27:19;20.80;93.20
44431;DHT22;30135;47.866;-4.222;2022-08-19T05:29:46;20.80;93.20
44431;DHT22;30135;47.866;-4.222;2022-08-19T05:32:13;20.80;93.20
44431;DHT22;30135;47.866;-4.222;2022-08-19T05:34:40;20.80;93.20
44431;DHT22;30135;47.866;-4.222;2022-08-19T05:37:08;20.80;93.20
44431;DHT22;30135;47.866;-4.222;2022-08-19T05:39:35;20.80;93.20
44431;DHT22;30135;47.866;-4.222;2022-08-19T05:42:12;20.80;93.20
44431;DHT22;30135;47.866;-4.222;2022-08-19T05:44:41;20.80;93.10
44431;DHT22;30135;47.866;-4.222;2022-08-19T05:47:10;20.70;93.10
44431;DHT22;30135;47.866;-4.222;2022-08-19T05:49:38;20.80;93.10
44431;DHT22;30135;47.866;-4.222;2022-08-19T05:52:08;20.80;93.00
44431;DHT22;30135;47.866;-4.222;2022-08-19T05:54:40;20.70;92.90
44431;DHT22;30135;47.866;-4.222;2022-08-19T05:57:09;20.70;92.90
44431;DHT22;30135;47.866;-4.222;2022-08-19T05:59:35;20.70;92.90
44431;DHT22;30135;47.866;-4.222;2022-08-19T06:02:03;20.70;92.90
44431;DHT22;30135;47.866;-4.222;2022-08-19T06:04:33;20.70;92.90
44431;DHT22;30135;47.866;-4.222;2022-08-19T06:07:00;20.70;92.90
44431;DHT22;30135;47.866;-4.222;2022-08-19T06:09:27;20.70;92.90
44431;DHT22;30135;47.866;-4.222;2022-08-19T06:11:57;20.70;92.90
44431;DHT22;30135;47.866;-4.222;2022-08-19T06:14:28;20.70;92.90
44431;DHT22;30135;47.866;-4.222;2022-08-19T06:16:56;20.70;92.90
44431;DHT22;30135;47.866;-4.222;2022-08-19T06:19:30;20.70;92.90
44431;DHT22;30135;47.866;-4.222;2022-08-19T06:21:58;20.70;92.90
44431;DHT22;30135;47.866;-4.222;2022-08-19T06:24:28;20.70;92.90
44431;DHT22;30135;47.866;-4.222;2022-08-19T06:26:58;20.70;92.90
44431;DHT22;30135;47.866;-4.222;2022-08-19T06:29:26;20.70;92.90
44431;DHT22;30135;47.866;-4.222;2022-08-19T06:32:02;20.70;92.90
44431;DHT22;30135;47.866;-4.222;2022-08-19T06:34:31;20.70;92.90
44431;DHT22;30135;47.866;-4.222;2022-08-19T06:37:01;20.80;93.00
44431;DHT22;30135;47.866;-4.222;2022-08-19T06:39:35;20.70;92.90
44431;DHT22;30135;47.866;-4.222;2022-08-19T06:42:05;20.70;92.90
44431;DHT22;30135;47.866;-4.222;2022-08-19T06:44:40;20.80;92.90
44431;DHT22;30135;47.866;-4.222;2022-08-19T06:47:13;20.70;92.90
44431;DHT22;30135;47.866;-4.222;2022-08-19T06:49:47;20.80;92.90
44431;DHT22;30135;47.866;-4.222;2022-08-19T06:52:14;20.80;92.90
44431;DHT22;30135;47.866;-4.222;2022-08-19T06:54:42;20.80;92.90
44431;DHT22;30135;47.866;-4.222;2022-08-19T06:57:09;20.80;92.90
44431;DHT22;30135;47.866;-4.222;2022-08-19T06:59:40;20.80;93.00
44431;DHT22;30135;47.866;-4.222;2022-08-19T07:02:07;20.80;93.00
44431;DHT22;30135;47.866;-4.222;2022-08-19T07:04:35;20.80;92.90
44431;DHT22;30135;47.866;-4.222;2022-08-19T07:07:08;20.80;92.90
44431;DHT22;30135;47.866;-4.222;2022-08-19T07:09:41;20.90;92.90
44431;DHT22;30135;47.866;-4.222;2022-08-19T07:12:11;20.80;92.90
44431;DHT22;30135;47.866;-4.222;2022-08-19T07:14:41;20.90;93.00
44431;DHT22;30135;47.866;-4.222;2022-08-19T07:17:09;20.80;92.90
44431;DHT22;30135;47.866;-4.222;2022-08-19T07:19:37;20.90;92.90
44431;DHT22;30135;47.866;-4.222;2022-08-19T07:22:06;20.90;92.90
44431;DHT22;30135;47.866;-4.222;2022-08-19T07:24:33;20.90;92.90
44431;DHT22;30135;47.866;-4.222;2022-08-19T07:27:03;20.90;92.60
44431;DHT22;30135;47.866;-4.222;2022-08-19T07:29:32;20.90;92.90
44431;DHT22;30135;47.866;-4.222;2022-08-19T07:32:03;20.90;92.90
44431;DHT22;30135;47.866;-4.222;2022-08-19T07:34:36;20.90;92.90
44431;DHT22;30135;47.866;-4.222;2022-08-19T07:37:07;20.90;92.80
44431;DHT22;30135;47.866;-4.222;2022-08-19T07:39:36;20.90;92.80
44431;DHT22;30135;47.866;-4.222;2022-08-19T07:42:06;20.90;92.80
44431;DHT22;30135;47.866;-4.222;2022-08-19T07:44:36;20.90;92.90
44431;DHT22;30135;47.866;-4.222;2022-08-19T07:47:11;21.00;92.90
44431;DHT22;30135;47.866;-4.222;2022-08-19T07:49:44;21.00;92.90
44431;DHT22;30135;47.866;-4.222;2022-08-19T07:52:10;21.00;92.90
44431;DHT22;30135;47.866;-4.222;2022-08-19T07:54:38;21.00;92.90
44431;DHT22;30135;47.866;-4.222;2022-08-19T07:57:07;21.00;92.90
44431;DHT22;30135;47.866;-4.222;2022-08-19T07:59:35;21.00;92.90
44431;DHT22;30135;47.866;-4.222;2022-08-19T08:02:04;21.10;92.90
44431;DHT22;30135;47.866;-4.222;2022-08-19T08:04:31;21.20;92.80
44431;DHT22;30135;47.866;-4.222;2022-08-19T08:07:19;21.20;92.80
44431;DHT22;30135;47.866;-4.222;2022-08-19T08:10:07;21.20;92.60
44431;DHT22;30135;47.866;-4.222;2022-08-19T08:12:37;21.20;92.40
44431;DHT22;30135;47.866;-4.222;2022-08-19T08:15:11;21.30;92.40
44431;DHT22;30135;47.866;-4.222;2022-08-19T08:17:44;21.30;92.30
44431;DHT22;30135;47.866;-4.222;2022-08-19T08:20:13;21.30;92.20
44431;DHT22;30135;47.866;-4.222;2022-08-19T08:22:45;21.30;92.10
44431;DHT22;30135;47.866;-4.222;2022-08-19T08:25:31;21.30;91.90
44431;DHT22;30135;47.866;-4.222;2022-08-19T08:28:02;21.30;91.90
44431;DHT22;30135;47.866;-4.222;2022-08-19T08:30:32;21.30;91.80
44431;DHT22;30135;47.866;-4.222;2022-08-19T08:33:07;21.30;91.80
44431;DHT22;30135;47.866;-4.222;2022-08-19T08:35:35;21.20;91.80
44431;DHT22;30135;47.866;-4.222;2022-08-19T08:38:03;21.30;91.90
44431;DHT22;30135;47.866;-4.222;2022-08-19T08:40:49;21.20;91.80
44431;DHT22;30135;47.866;-4.222;2022-08-19T08:43:33;21.30;91.90
44431;DHT22;30135;47.866;-4.222;2022-08-19T08:46:08;21.20;92.00
44431;DHT22;30135;47.866;-4.222;2022-08-19T08:49:16;21.20;92.00
44431;DHT22;30135;47.866;-4.222;2022-08-19T08:52:03;21.20;92.20
44431;DHT22;30135;47.866;-4.222;2022-08-19T08:54:46;21.10;92.20
44431;DHT22;30135;47.866;-4.222;2022-08-19T08:57:18;21.20;92.40
44431;DHT22;30135;47.866;-4.222;2022-08-19T08:59:49;21.20;92.50
44431;DHT22;30135;47.866;-4.222;2022-08-19T09:02:19;21.10;92.60
44431;DHT22;30135;47.866;-4.222;2022-08-19T09:04:46;21.10;92.60
44431;DHT22;30135;47.866;-4.222;2022-08-19T09:07:41;21.10;92.80
44431;DHT22;30135;47.866;-4.222;2022-08-19T09:10:36;21.10;93.00
44431;DHT22;30135;47.866;-4.222;2022-08-19T09:13:31;21.10;93.10
44431;DHT22;30135;47.866;-4.222;2022-08-19T09:16:16;21.10;93.20
44431;DHT22;30135;47.866;-4.222;2022-08-19T09:18:49;21.10;93.20
44431;DHT22;30135;47.866;-4.222;2022-08-19T09:21:22;21.10;93.40
44431;DHT22;30135;47.866;-4.222;2022-08-19T09:23:51;21.10;93.50
44431;DHT22;30135;47.866;-4.222;2022-08-19T09:26:20;21.10;93.60
44431;DHT22;30135;47.866;-4.222;2022-08-19T09:28:50;21.10;93.60
44431;DHT22;30135;47.866;-4.222;2022-08-19T09:31:22;21.10;93.70
44431;DHT22;30135;47.866;-4.222;2022-08-19T09:33:52;21.10;93.80
44431;DHT22;30135;47.866;-4.222;2022-08-19T09:36:27;21.10;93.80
44431;DHT22;30135;47.866;-4.222;2022-08-19T09:39:06;21.10;93.90
44431;DHT22;30135;47.866;-4.222;2022-08-19T09:41:34;21.10;93.90
44431;DHT22;30135;47.866;-4.222;2022-08-19T09:44:01;21.10;93.90
44431;DHT22;30135;47.866;-4.222;2022-08-19T09:46:31;21.10;94.00
44431;DHT22;30135;47.866;-4.222;2022-08-19T09:49:01;21.10;94.00
44431;DHT22;30135;47.866;-4.222;2022-08-19T09:51:30;21.10;94.10
44431;DHT22;30135;47.866;-4.222;2022-08-19T09:54:02;21.10;94.20
44431;DHT22;30135;47.866;-4.222;2022-08-19T09:56:29;21.00;94.10
44431;DHT22;30135;47.866;-4.222;2022-08-19T09:58:58;21.00;94.20
44431;DHT22;30135;47.866;-4.222;2022-08-19T10:01:28;21.10;94.30
44431;DHT22;30135;47.866;-4.222;2022-08-19T10:03:59;21.10;94.40
44431;DHT22;30135;47.866;-4.222;2022-08-19T10:06:29;21.10;94.80
44431;DHT22;30135;47.866;-4.222;2022-08-19T10:08:58;21.10;94.50
44431;DHT22;30135;47.866;-4.222;2022-08-19T10:11:26;21.10;94.50
44431;DHT22;30135;47.866;-4.222;2022-08-19T10:13:55;21.10;94.50
44431;DHT22;30135;47.866;-4.222;2022-08-19T10:16:23;21.00;94.50
44431;DHT22;30135;47.866;-4.222;2022-08-19T10:18:51;21.10;94.60
44431;DHT22;30135;47.866;-4.222;2022-08-19T10:21:24;21.00;94.60
44431;DHT22;30135;47.866;-4.222;2022-08-19T10:23:57;21.00;94.70
44431;DHT22;30135;47.866;-4.222;2022-08-19T10:26:36;21.10;94.80
44431;DHT22;30135;47.866;-4.222;2022-08-19T10:29:04;21.00;94.80
44431;DHT22;30135;47.866;-4.222;2022-08-19T10:31:33;21.00;94.80
44431;DHT22;30135;47.866;-4.222;2022-08-19T10:34:01;21.00;95.20
44431;DHT22;30135;47.866;-4.222;2022-08-19T10:36:33;21.00;94.80
44431;DHT22;30135;47.866;-4.222;2022-08-19T10:39:07;21.00;94.90
44431;DHT22;30135;47.866;-4.222;2022-08-19T10:41:37;21.00;94.90
44431;DHT22;30135;47.866;-4.222;2022-08-19T10:44:08;21.00;94.90
44431;DHT22;30135;47.866;-4.222;2022-08-19T10:46:40;21.00;94.90
44431;DHT22;30135;47.866;-4.222;2022-08-19T10:49:09;21.00;94.90
44431;DHT22;30135;47.866;-4.222;2022-08-19T10:51:38;21.00;95.00
44431;DHT22;30135;47.866;-4.222;2022-08-19T10:54:25;21.00;95.00
44431;DHT22;30135;47.866;-4.222;2022-08-19T10:57:12;21.00;95.00
44431;DHT22;30135;47.866;-4.222;2022-08-19T10:59:38;20.90;95.00
44431;DHT22;30135;47.866;-4.222;2022-08-19T11:02:08;20.90;95.00
44431;DHT22;30135;47.866;-4.222;2022-08-19T11:04:38;20.90;95.00
44431;DHT22;30135;47.866;-4.222;2022-08-19T11:07:06;20.90;95.00
44431;DHT22;30135;47.866;-4.222;2022-08-19T11:09:40;20.90;94.90
44431;DHT22;30135;47.866;-4.222;2022-08-19T11:12:09;20.90;94.90
44431;DHT22;30135;47.866;-4.222;2022-08-19T11:14:37;20.90;94.90
44431;DHT22;30135;47.866;-4.222;2022-08-19T11:17:04;20.90;94.90
44431;DHT22;30135;47.866;-4.222;2022-08-19T11:19:31;20.80;94.80
44431;DHT22;30135;47.866;-4.222;2022-08-19T11:21:58;20.80;94.90
44431;DHT22;30135;47.866;-4.222;2022-08-19T11:24:30;20.80;94.90
44431;DHT22;30135;47.866;-4.222;2022-08-19T11:27:03;20.80;95.00
44431;DHT22;30135;47.866;-4.222;2022-08-19T11:29:31;20.80;95.00
44431;DHT22;30135;47.866;-4.222;2022-08-19T11:32:02;20.80;95.10
44431;DHT22;30135;47.866;-4.222;2022-08-19T11:34:31;20.80;95.10
44431;DHT22;30135;47.866;-4.222;2022-08-19T11:36:57;20.80;95.10
44431;DHT22;30135;47.866;-4.222;2022-08-19T11:39:27;20.80;95.10
44431;DHT22;30135;47.866;-4.222;2022-08-19T11:41:54;20.80;95.10
44431;DHT22;30135;47.866;-4.222;2022-08-19T11:44:20;20.80;95.10
44431;DHT22;30135;47.866;-4.222;2022-08-19T11:46:47;20.80;95.00
44431;DHT22;30135;47.866;-4.222;2022-08-19T11:49:15;20.80;95.00
44431;DHT22;30135;47.866;-4.222;2022-08-19T11:51:45;20.80;95.10
44431;DHT22;30135;47.866;-4.222;2022-08-19T11:54:14;20.80;95.00
44431;DHT22;30135;47.866;-4.222;2022-08-19T11:56:41;20.80;95.10
44431;DHT22;30135;47.866;-4.222;2022-08-19T11:59:08;20.80;95.10
44431;DHT22;30135;47.866;-4.222;2022-08-19T12:01:36;20.80;95.10
44431;DHT22;30135;47.866;-4.222;2022-08-19T12:04:03;20.80;95.40
44431;DHT22;30135;47.866;-4.222;2022-08-19T12:06:33;20.70;95.10
44431;DHT22;30135;47.866;-4.222;2022-08-19T12:09:03;20.70;95.10
44431;DHT22;30135;47.866;-4.222;2022-08-19T12:11:32;20.80;95.10
44431;DHT22;30135;47.866;-4.222;2022-08-19T12:13:58;20.70;95.10
44431;DHT22;30135;47.866;-4.222;2022-08-19T12:16:27;20.70;95.10
44431;DHT22;30135;47.866;-4.222;2022-08-19T12:18:56;20.70;95.10
44431;DHT22;30135;47.866;-4.222;2022-08-19T12:21:26;20.80;95.20
44431;DHT22;30135;47.866;-4.222;2022-08-19T12:23:58;20.80;95.30
44431;DHT22;30135;47.866;-4.222;2022-08-19T12:26:26;20.80;95.30
44431;DHT22;30135;47.866;-4.222;2022-08-19T12:28:54;20.90;95.70
44431;DHT22;30135;47.866;-4.222;2022-08-19T12:31:21;20.90;95.30
44431;DHT22;30135;47.866;-4.222;2022-08-19T12:33:50;21.00;95.40
44431;DHT22;30135;47.866;-4.222;2022-08-19T12:36:18;21.00;95.40
44431;DHT22;30135;47.866;-4.222;2022-08-19T12:38:44;21.10;95.40
44431;DHT22;30135;47.866;-4.222;2022-08-19T12:41:14;21.10;95.40
44431;DHT22;30135;47.866;-4.222;2022-08-19T12:43:42;21.20;95.40
44431;DHT22;30135;47.866;-4.222;2022-08-19T12:46:09;21.20;95.40
44431;DHT22;30135;47.866;-4.222;2022-08-19T12:48:37;21.20;95.20
44431;DHT22;30135;47.866;-4.222;2022-08-19T12:51:09;21.20;95.10
44431;DHT22;30135;47.866;-4.222;2022-08-19T12:53:38;21.20;95.10
44431;DHT22;30135;47.866;-4.222;2022-08-19T12:56:04;21.30;95.10
44431;DHT22;30135;47.866;-4.222;2022-08-19T12:58:31;21.30;95.40
44431;DHT22;30135;47.866;-4.222;2022-08-19T13:01:13;21.30;95.20
44431;DHT22;30135;47.866;-4.222;2022-08-19T13:03:42;21.40;95.40
44431;DHT22;30135;47.866;-4.222;2022-08-19T13:06:09;21.50;95.30
44431;DHT22;30135;47.866;-4.222;2022-08-19T13:08:37;21.60;95.20
44431;DHT22;30135;47.866;-4.222;2022-08-19T13:11:11;21.60;95.10
44431;DHT22;30135;47.866;-4.222;2022-08-19T13:13:40;21.70;95.00
44431;DHT22;30135;47.866;-4.222;2022-08-19T13:16:10;21.80;94.80
44431;DHT22;30135;47.866;-4.222;2022-08-19T13:18:38;21.80;95.00
44431;DHT22;30135;47.866;-4.222;2022-08-19T13:21:07;21.90;94.50
44431;DHT22;30135;47.866;-4.222;2022-08-19T13:23:37;21.90;94.30
44431;DHT22;30135;47.866;-4.222;2022-08-19T13:26:05;21.90;94.20
44431;DHT22;30135;47.866;-4.222;2022-08-19T13:28:33;21.90;94.00
44431;DHT22;30135;47.866;-4.222;2022-08-19T13:31:21;21.90;94.00
44431;DHT22;30135;47.866;-4.222;2022-08-19T13:34:07;21.90;93.90
44431;DHT22;30135;47.866;-4.222;2022-08-19T13:36:34;21.90;93.90
44431;DHT22;30135;47.866;-4.222;2022-08-19T13:39:02;21.90;93.90
44431;DHT22;30135;47.866;-4.222;2022-08-19T13:41:28;21.90;93.90
44431;DHT22;30135;47.866;-4.222;2022-08-19T13:43:54;21.90;93.90
44431;DHT22;30135;47.866;-4.222;2022-08-19T13:46:21;21.90;93.80
44431;DHT22;30135;47.866;-4.222;2022-08-19T13:48:47;21.90;93.70
44431;DHT22;30135;47.866;-4.222;2022-08-19T13:51:15;21.90;93.70
44431;DHT22;30135;47.866;-4.222;2022-08-19T13:53:45;22.00;93.80
44431;DHT22;30135;47.866;-4.222;2022-08-19T13:56:15;22.00;93.70
44431;DHT22;30135;47.866;-4.222;2022-08-19T13:58:42;22.00;93.70
44431;DHT22;30135;47.866;-4.222;2022-08-19T14:01:09;22.00;93.70
44431;DHT22;30135;47.866;-4.222;2022-08-19T14:03:36;22.00;93.70
44431;DHT22;30135;47.866;-4.222;2022-08-19T14:06:03;22.10;93.70
44431;DHT22;30135;47.866;-4.222;2022-08-19T14:08:34;22.20;93.70
44431;DHT22;30135;47.866;-4.222;2022-08-19T14:11:00;22.30;93.60
44431;DHT22;30135;47.866;-4.222;2022-08-19T14:13:26;22.30;93.50
44431;DHT22;30135;47.866;-4.222;2022-08-19T14:15:53;22.40;93.40
44431;DHT22;30135;47.866;-4.222;2022-08-19T14:18:19;22.40;93.30
44431;DHT22;30135;47.866;-4.222;2022-08-19T14:20:45;22.50;93.30
44431;DHT22;30135;47.866;-4.222;2022-08-19T14:23:12;22.50;93.20
44431;DHT22;30135;47.866;-4.222;2022-08-19T14:25:40;22.60;93.00
44431;DHT22;30135;47.866;-4.222;2022-08-19T14:28:06;22.70;92.80
44431;DHT22;30135;47.866;-4.222;2022-08-19T14:30:34;22.70;92.60
44431;DHT22;30135;47.866;-4.222;2022-08-19T14:33:04;22.70;92.30
44431;DHT22;30135;47.866;-4.222;2022-08-19T14:35:33;22.70;92.20
44431;DHT22;30135;47.866;-4.222;2022-08-19T14:38:01;22.80;92.10
44431;DHT22;30135;47.866;-4.222;2022-08-19T14:40:31;22.80;91.90
44431;DHT22;30135;47.866;-4.222;2022-08-19T14:43:00;22.80;91.80
44431;DHT22;30135;47.866;-4.222;2022-08-19T14:45:31;22.90;91.60
44431;DHT22;30135;47.866;-4.222;2022-08-19T14:48:01;22.90;91.40
44431;DHT22;30135;47.866;-4.222;2022-08-19T14:50:27;22.90;91.30
44431;DHT22;30135;47.866;-4.222;2022-08-19T14:53:01;22.90;91.10
44431;DHT22;30135;47.866;-4.222;2022-08-19T14:55:30;22.90;90.80
44431;DHT22;30135;47.866;-4.222;2022-08-19T14:57:58;22.90;90.80
44431;DHT22;30135;47.866;-4.222;2022-08-19T15:00:25;22.90;91.00
44431;DHT22;30135;47.866;-4.222;2022-08-19T15:02:52;22.90;90.50
44431;DHT22;30135;47.866;-4.222;2022-08-19T15:05:20;23.00;90.40
44431;DHT22;30135;47.866;-4.222;2022-08-19T15:07:47;22.90;90.20
44431;DHT22;30135;47.866;-4.222;2022-08-19T15:10:14;23.00;90.00
44431;DHT22;30135;47.866;-4.222;2022-08-19T15:12:41;23.00;89.80
44431;DHT22;30135;47.866;-4.222;2022-08-19T15:15:11;23.00;89.60
44431;DHT22;30135;47.866;-4.222;2022-08-19T15:17:39;23.00;89.40
44431;DHT22;30135;47.866;-4.222;2022-08-19T15:20:07;23.00;89.00
44431;DHT22;30135;47.866;-4.222;2022-08-19T15:22:35;23.00;88.80
44431;DHT22;30135;47.866;-4.222;2022-08-19T15:25:03;22.90;87.80
44431;DHT22;30135;47.866;-4.222;2022-08-19T15:27:33;22.90;87.60
44431;DHT22;30135;47.866;-4.222;2022-08-19T15:30:00;22.90;87.10
44431;DHT22;30135;47.866;-4.222;2022-08-19T15:32:26;22.90;87.10
44431;DHT22;30135;47.866;-4.222;2022-08-19T15:34:53;22.90;86.70